sensor_id;sensor_type;location;lat;lon;timestamp;P1;durP1;ratioP1;P2;durP2;ratioP2
20611;SDS011;10465;42.686;23.364;2023-05-10T00:00:20;5.70;;;4.45;;
20611;SDS011;10465;42.686;23.364;2023-05-10T00:02:47;4.78;;;4.22;;
20611;SDS011;10465;42.686;23.364;2023-05-10T00:05:13;6.05;;;4.75;;
20611;SDS011;10465;42.686;23.364;2023-05-10T00:07:38;8.10;;;5.88;;
20611;SDS011;10465;42.686;23.364;2023-05-10T00:10:04;6.38;;;5.63;;
20611;SDS011;10465;42.686;23.364;2023-05-10T00:12:30;6.80;;;5.95;;
20611;SDS011;10465;42.686;23.364;2023-05-10T00:14:55;9.40;;;6.68;;
20611;SDS011;10465;42.686;23.364;2023-05-10T00:17:21;9.88;;;6.80;;
20611;SDS011;10465;42.686;23.364;2023-05-10T00:19:46;7.68;;;6.85;;
20611;SDS011;10465;42.686;23.364;2023-05-10T00:22:11;7.97;;;6.88;;
20611;SDS011;10465;42.686;23.364;2023-05-10T00:24:37;7.72;;;6.55;;
20611;SDS011;10465;42.686;23.364;2023-05-10T00:27:02;7.68;;;6.88;;
20611;SDS011;10465;42.686;23.364;2023-05-10T00:29:29;7.50;;;6.53;;
20611;SDS011;10465;42.686;23.364;2023-05-10T00:31:54;7.53;;;6.70;;
20611;SDS011;10465;42.686;23.364;2023-05-10T00:34:20;8.90;;;7.25;;
20611;SDS011;10465;42.686;23.364;2023-05-10T00:36:45;8.68;;;6.95;;
20611;SDS011;10465;42.686;23.364;2023-05-10T00:39:11;7.55;;;6.60;;
20611;SDS011;10465;42.686;23.364;2023-05-10T00:41:37;8.05;;;7.00;;
20611;SDS011;10465;42.686;23.364;2023-05-10T00:44:03;8.73;;;7.78;;
20611;SDS011;10465;42.686;23.364;2023-05-10T00:46:29;8.90;;;7.65;;
20611;SDS011;10465;42.686;23.364;2023-05-10T00:48:55;8.00;;;7.20;;
20611;SDS011;10465;42.686;23.364;2023-05-10T00:51:20;9.00;;;7.88;;
20611;SDS011;10465;42.686;23.364;2023-05-10T00:53:46;8.90;;;7.55;;
20611;SDS011;10465;42.686;23.364;2023-05-10T00:56:13;8.90;;;8.00;;
20611;SDS011;10465;42.686;23.364;2023-05-10T00:58:39;8.50;;;7.47;;
20611;SDS011;10465;42.686;23.364;2023-05-10T01:01:05;9.48;;;7.93;;
20611;SDS011;10465;42.686;23.364;2023-05-10T01:03:31;10.27;;;7.80;;
20611;SDS011;10465;42.686;23.364;2023-05-10T01:05:57;8.98;;;8.05;;
20611;SDS011;10465;42.686;23.364;2023-05-10T01:08:22;9.80;;;7.13;;
20611;SDS011;10465;42.686;23.364;2023-05-10T01:10:48;10.15;;;7.95;;
20611;SDS011;10465;42.686;23.364;2023-05-10T01:13:17;7.70;;;6.90;;
20611;SDS011;10465;42.686;23.364;2023-05-10T01:15:55;8.52;;;6.90;;
20611;SDS011;10465;42.686;23.364;2023-05-10T01:18:21;7.25;;;6.55;;
20611;SDS011;10465;42.686;23.364;2023-05-10T01:20:48;7.40;;;6.07;;
20611;SDS011;10465;42.686;23.364;2023-05-10T01:23:36;6.85;;;6.15;;
20611;SDS011;10465;42.686;23.364;2023-05-10T01:26:15;6.50;;;5.82;;
20611;SDS011;10465;42.686;23.364;2023-05-10T01:34:42;6.50;;;5.88;;
20611;SDS011;10465;42.686;23.364;2023-05-10T01:37:13;6.10;;;5.40;;
20611;SDS011;10465;42.686;23.364;2023-05-10T01:39:44;6.10;;;5.50;;
20611;SDS011;10465;42.686;23.364;2023-05-10T01:42:16;7.70;;;5.68;;
20611;SDS011;10465;42.686;23.364;2023-05-10T01:44:54;5.90;;;5.30;;
20611;SDS011;10465;42.686;23.364;2023-05-10T01:47:38;5.90;;;5.30;;
20611;SDS011;10465;42.686;23.364;2023-05-10T01:50:10;5.63;;;5.03;;
20611;SDS011;10465;42.686;23.364;2023-05-10T01:52:42;6.80;;;5.28;;
20611;SDS011;10465;42.686;23.364;2023-05-10T01:55:14;5.82;;;5.18;;
20611;SDS011;10465;42.686;23.364;2023-05-10T01:57:43;5.90;;;4.70;;
20611;SDS011;10465;42.686;23.364;2023-05-10T02:00:11;6.40;;;5.38;;
20611;SDS011;10465;42.686;23.364;2023-05-10T02:02:42;5.68;;;4.72;;
20611;SDS011;10465;42.686;23.364;2023-05-10T02:05:12;5.18;;;4.68;;
20611;SDS011;10465;42.686;23.364;2023-05-10T02:07:39;5.85;;;4.75;;
20611;SDS011;10465;42.686;23.364;2023-05-10T02:10:06;5.45;;;4.95;;
20611;SDS011;10465;42.686;23.364;2023-05-10T02:12:52;5.57;;;5.07;;
20611;SDS011;10465;42.686;23.364;2023-05-10T02:15:22;6.35;;;5.50;;
20611;SDS011;10465;42.686;23.364;2023-05-10T02:17:49;6.78;;;5.60;;
20611;SDS011;10465;42.686;23.364;2023-05-10T02:20:17;8.18;;;6.05;;
20611;SDS011;10465;42.686;23.364;2023-05-10T02:22:44;6.18;;;5.35;;
20611;SDS011;10465;42.686;23.364;2023-05-10T02:25:11;7.18;;;5.80;;
20611;SDS011;10465;42.686;23.364;2023-05-10T02:27:38;6.68;;;5.47;;
20611;SDS011;10465;42.686;23.364;2023-05-10T02:30:06;7.65;;;5.70;;
20611;SDS011;10465;42.686;23.364;2023-05-10T02:32:33;7.50;;;5.15;;
20611;SDS011;10465;42.686;23.364;2023-05-10T02:35:00;7.15;;;5.47;;
20611;SDS011;10465;42.686;23.364;2023-05-10T02:37:28;9.48;;;6.07;;
20611;SDS011;10465;42.686;23.364;2023-05-10T02:39:54;5.95;;;5.22;;
20611;SDS011;10465;42.686;23.364;2023-05-10T02:42:23;6.57;;;5.75;;
20611;SDS011;10465;42.686;23.364;2023-05-10T02:44:52;6.40;;;4.65;;
20611;SDS011;10465;42.686;23.364;2023-05-10T02:47:21;5.88;;;4.53;;
20611;SDS011;10465;42.686;23.364;2023-05-10T02:49:47;8.15;;;5.10;;
20611;SDS011;10465;42.686;23.364;2023-05-10T02:52:14;5.35;;;4.85;;
20611;SDS011;10465;42.686;23.364;2023-05-10T02:54:45;6.30;;;5.03;;
20611;SDS011;10465;42.686;23.364;2023-05-10T02:57:15;5.90;;;4.93;;
20611;SDS011;10465;42.686;23.364;2023-05-10T02:59:44;6.43;;;4.40;;
20611;SDS011;10465;42.686;23.364;2023-05-10T03:02:10;7.10;;;4.85;;
20611;SDS011;10465;42.686;23.364;2023-05-10T03:04:38;6.90;;;5.22;;
20611;SDS011;10465;42.686;23.364;2023-05-10T03:07:04;7.43;;;5.03;;
20611;SDS011;10465;42.686;23.364;2023-05-10T03:09:30;6.10;;;4.90;;
20611;SDS011;10465;42.686;23.364;2023-05-10T03:12:00;8.15;;;5.72;;
20611;SDS011;10465;42.686;23.364;2023-05-10T03:20:26;7.45;;;5.38;;
20611;SDS011;10465;42.686;23.364;2023-05-10T03:23:02;7.38;;;5.20;;
20611;SDS011;10465;42.686;23.364;2023-05-10T03:25:36;6.75;;;4.75;;
20611;SDS011;10465;42.686;23.364;2023-05-10T03:28:03;5.93;;;4.53;;
20611;SDS011;10465;42.686;23.364;2023-05-10T03:30:30;6.05;;;4.85;;
20611;SDS011;10465;42.686;23.364;2023-05-10T03:32:56;5.85;;;4.85;;
20611;SDS011;10465;42.686;23.364;2023-05-10T03:35:22;8.05;;;4.90;;
20611;SDS011;10465;42.686;23.364;2023-05-10T03:37:48;6.00;;;5.10;;
20611;SDS011;10465;42.686;23.364;2023-05-10T03:40:14;6.10;;;4.53;;
20611;SDS011;10465;42.686;23.364;2023-05-10T03:42:40;7.35;;;4.80;;
20611;SDS011;10465;42.686;23.364;2023-05-10T03:45:06;6.55;;;4.88;;
20611;SDS011;10465;42.686;23.364;2023-05-10T03:47:32;6.22;;;4.85;;
20611;SDS011;10465;42.686;23.364;2023-05-10T03:49:57;6.05;;;4.88;;
20611;SDS011;10465;42.686;23.364;2023-05-10T03:52:24;9.13;;;5.40;;
20611;SDS011;10465;42.686;23.364;2023-05-10T03:54:50;6.57;;;4.50;;
20611;SDS011;10465;42.686;23.364;2023-05-10T03:57:16;6.80;;;4.65;;
20611;SDS011;10465;42.686;23.364;2023-05-10T03:59:41;9.05;;;4.68;;
20611;SDS011;10465;42.686;23.364;2023-05-10T04:02:07;5.57;;;4.35;;
20611;SDS011;10465;42.686;23.364;2023-05-10T04:04:32;6.57;;;4.95;;
20611;SDS011;10465;42.686;23.364;2023-05-10T04:06:57;8.02;;;5.00;;
20611;SDS011;10465;42.686;23.364;2023-05-10T04:09:23;6.43;;;4.60;;
20611;SDS011;10465;42.686;23.364;2023-05-10T04:11:48;6.00;;;4.65;;
20611;SDS011;10465;42.686;23.364;2023-05-10T04:14:14;6.50;;;5.15;;
20611;SDS011;10465;42.686;23.364;2023-05-10T04:16:39;8.93;;;5.18;;
20611;SDS011;10465;42.686;23.364;2023-05-10T04:19:05;6.47;;;5.22;;
20611;SDS011;10465;42.686;23.364;2023-05-10T04:21:30;6.35;;;5.00;;
20611;SDS011;10465;42.686;23.364;2023-05-10T04:23:56;6.53;;;4.97;;
20611;SDS011;10465;42.686;23.364;2023-05-10T04:26:21;6.47;;;5.32;;
20611;SDS011;10465;42.686;23.364;2023-05-10T04:28:47;9.80;;;5.88;;
20611;SDS011;10465;42.686;23.364;2023-05-10T04:31:12;7.53;;;5.40;;
20611;SDS011;10465;42.686;23.364;2023-05-10T04:33:38;8.50;;;5.32;;
20611;SDS011;10465;42.686;23.364;2023-05-10T04:36:03;8.80;;;5.35;;
20611;SDS011;10465;42.686;23.364;2023-05-10T04:38:29;6.03;;;4.90;;
20611;SDS011;10465;42.686;23.364;2023-05-10T04:41:03;7.60;;;5.57;;
20611;SDS011;10465;42.686;23.364;2023-05-10T04:43:30;7.30;;;5.63;;
20611;SDS011;10465;42.686;23.364;2023-05-10T04:45:58;7.88;;;5.53;;
20611;SDS011;10465;42.686;23.364;2023-05-10T04:48:24;6.80;;;5.40;;
20611;SDS011;10465;42.686;23.364;2023-05-10T04:50:49;8.27;;;5.40;;
20611;SDS011;10465;42.686;23.364;2023-05-10T04:53:16;8.32;;;5.68;;
20611;SDS011;10465;42.686;23.364;2023-05-10T04:55:41;9.73;;;6.40;;
20611;SDS011;10465;42.686;23.364;2023-05-10T04:58:07;9.82;;;5.93;;
20611;SDS011;10465;42.686;23.364;2023-05-10T05:00:33;7.35;;;5.90;;
20611;SDS011;10465;42.686;23.364;2023-05-10T05:02:58;9.07;;;6.13;;
20611;SDS011;10465;42.686;23.364;2023-05-10T05:05:24;7.32;;;5.40;;
20611;SDS011;10465;42.686;23.364;2023-05-10T05:07:49;8.60;;;5.57;;
20611;SDS011;10465;42.686;23.364;2023-05-10T05:10:15;10.00;;;6.45;;
20611;SDS011;10465;42.686;23.364;2023-05-10T05:12:41;8.43;;;5.63;;
20611;SDS011;10465;42.686;23.364;2023-05-10T05:15:06;7.25;;;5.68;;
20611;SDS011;10465;42.686;23.364;2023-05-10T05:17:34;7.43;;;6.00;;
20611;SDS011;10465;42.686;23.364;2023-05-10T05:20:00;7.82;;;6.05;;
20611;SDS011;10465;42.686;23.364;2023-05-10T05:22:25;7.78;;;5.75;;
20611;SDS011;10465;42.686;23.364;2023-05-10T05:24:54;9.20;;;6.70;;
20611;SDS011;10465;42.686;23.364;2023-05-10T05:27:20;8.80;;;6.47;;
20611;SDS011;10465;42.686;23.364;2023-05-10T05:29:55;9.75;;;6.57;;
20611;SDS011;10465;42.686;23.364;2023-05-10T05:32:21;10.43;;;6.32;;
20611;SDS011;10465;42.686;23.364;2023-05-10T05:34:47;7.25;;;6.45;;
20611;SDS011;10465;42.686;23.364;2023-05-10T05:37:16;10.80;;;7.18;;
20611;SDS011;10465;42.686;23.364;2023-05-10T05:39:43;16.23;;;7.35;;
20611;SDS011;10465;42.686;23.364;2023-05-10T05:42:09;8.63;;;6.68;;
20611;SDS011;10465;42.686;23.364;2023-05-10T05:44:35;9.82;;;7.15;;
20611;SDS011;10465;42.686;23.364;2023-05-10T05:47:01;10.90;;;7.38;;
20611;SDS011;10465;42.686;23.364;2023-05-10T05:49:27;11.45;;;6.95;;
20611;SDS011;10465;42.686;23.364;2023-05-10T05:51:53;9.27;;;7.28;;
20611;SDS011;10465;42.686;23.364;2023-05-10T05:54:18;9.27;;;8.10;;
20611;SDS011;10465;42.686;23.364;2023-05-10T05:56:44;10.00;;;6.25;;
20611;SDS011;10465;42.686;23.364;2023-05-10T05:59:10;10.60;;;6.65;;
20611;SDS011;10465;42.686;23.364;2023-05-10T06:01:36;9.48;;;6.75;;
20611;SDS011;10465;42.686;23.364;2023-05-10T06:04:01;9.68;;;7.30;;
20611;SDS011;10465;42.686;23.364;2023-05-10T06:06:27;12.68;;;7.25;;
20611;SDS011;10465;42.686;23.364;2023-05-10T06:08:52;9.77;;;6.45;;
20611;SDS011;10465;42.686;23.364;2023-05-10T06:11:18;12.55;;;6.90;;
20611;SDS011;10465;42.686;23.364;2023-05-10T06:13:44;9.40;;;6.88;;
20611;SDS011;10465;42.686;23.364;2023-05-10T06:16:09;10.48;;;6.10;;
20611;SDS011;10465;42.686;23.364;2023-05-10T06:18:35;8.23;;;6.22;;
20611;SDS011;10465;42.686;23.364;2023-05-10T06:21:01;10.45;;;5.80;;
20611;SDS011;10465;42.686;23.364;2023-05-10T06:23:26;9.75;;;6.13;;
20611;SDS011;10465;42.686;23.364;2023-05-10T06:25:51;7.75;;;6.05;;
20611;SDS011;10465;42.686;23.364;2023-05-10T06:28:17;11.23;;;6.40;;
20611;SDS011;10465;42.686;23.364;2023-05-10T06:30:43;11.32;;;6.70;;
20611;SDS011;10465;42.686;23.364;2023-05-10T06:33:09;9.07;;;6.78;;
20611;SDS011;10465;42.686;23.364;2023-05-10T06:35:35;10.75;;;6.25;;
20611;SDS011;10465;42.686;23.364;2023-05-10T06:38:01;7.95;;;6.18;;
20611;SDS011;10465;42.686;23.364;2023-05-10T06:40:27;8.48;;;5.60;;
20611;SDS011;10465;42.686;23.364;2023-05-10T06:42:52;10.43;;;7.03;;
20611;SDS011;10465;42.686;23.364;2023-05-10T06:45:17;13.20;;;7.70;;
20611;SDS011;10465;42.686;23.364;2023-05-10T06:47:43;8.05;;;5.60;;
20611;SDS011;10465;42.686;23.364;2023-05-10T06:50:09;9.55;;;6.47;;
20611;SDS011;10465;42.686;23.364;2023-05-10T06:52:36;10.35;;;6.30;;
20611;SDS011;10465;42.686;23.364;2023-05-10T06:55:05;7.13;;;5.38;;
20611;SDS011;10465;42.686;23.364;2023-05-10T06:57:31;9.82;;;5.55;;
20611;SDS011;10465;42.686;23.364;2023-05-10T06:59:57;9.50;;;6.65;;
20611;SDS011;10465;42.686;23.364;2023-05-10T07:02:23;7.40;;;5.80;;
20611;SDS011;10465;42.686;23.364;2023-05-10T07:04:49;8.68;;;5.82;;
20611;SDS011;10465;42.686;23.364;2023-05-10T07:07:16;9.15;;;5.95;;
20611;SDS011;10465;42.686;23.364;2023-05-10T07:09:42;6.93;;;5.50;;
20611;SDS011;10465;42.686;23.364;2023-05-10T07:12:07;9.00;;;6.28;;
20611;SDS011;10465;42.686;23.364;2023-05-10T07:14:33;9.80;;;6.07;;
20611;SDS011;10465;42.686;23.364;2023-05-10T07:16:58;8.45;;;6.68;;
20611;SDS011;10465;42.686;23.364;2023-05-10T07:19:23;6.80;;;5.68;;
20611;SDS011;10465;42.686;23.364;2023-05-10T07:21:49;10.00;;;5.30;;
20611;SDS011;10465;42.686;23.364;2023-05-10T07:24:15;10.07;;;5.90;;
20611;SDS011;10465;42.686;23.364;2023-05-10T07:26:41;8.70;;;5.97;;
20611;SDS011;10465;42.686;23.364;2023-05-10T07:29:06;8.40;;;6.22;;
20611;SDS011;10465;42.686;23.364;2023-05-10T07:31:32;9.98;;;6.50;;
20611;SDS011;10465;42.686;23.364;2023-05-10T07:33:57;8.23;;;6.10;;
20611;SDS011;10465;42.686;23.364;2023-05-10T07:36:23;8.73;;;6.63;;
20611;SDS011;10465;42.686;23.364;2023-05-10T07:38:48;8.07;;;5.35;;
20611;SDS011;10465;42.686;23.364;2023-05-10T07:41:14;9.25;;;6.75;;
20611;SDS011;10465;42.686;23.364;2023-05-10T07:43:39;10.27;;;6.28;;
20611;SDS011;10465;42.686;23.364;2023-05-10T07:46:05;11.10;;;7.05;;
20611;SDS011;10465;42.686;23.364;2023-05-10T07:48:31;9.85;;;7.90;;
20611;SDS011;10465;42.686;23.364;2023-05-10T07:50:56;10.13;;;7.80;;
20611;SDS011;10465;42.686;23.364;2023-05-10T07:53:21;11.27;;;7.78;;
20611;SDS011;10465;42.686;23.364;2023-05-10T07:55:50;9.50;;;8.05;;
20611;SDS011;10465;42.686;23.364;2023-05-10T07:58:16;12.57;;;8.93;;
20611;SDS011;10465;42.686;23.364;2023-05-10T08:00:42;14.52;;;8.90;;
20611;SDS011;10465;42.686;23.364;2023-05-10T08:03:07;11.68;;;7.90;;
20611;SDS011;10465;42.686;23.364;2023-05-10T08:05:33;11.02;;;7.90;;
20611;SDS011;10465;42.686;23.364;2023-05-10T08:07:58;12.85;;;8.02;;
20611;SDS011;10465;42.686;23.364;2023-05-10T08:10:24;12.27;;;8.07;;
20611;SDS011;10465;42.686;23.364;2023-05-10T08:12:50;10.00;;;7.85;;
20611;SDS011;10465;42.686;23.364;2023-05-10T08:15:16;10.70;;;7.82;;
20611;SDS011;10465;42.686;23.364;2023-05-10T08:17:41;11.25;;;8.00;;
20611;SDS011;10465;42.686;23.364;2023-05-10T08:20:08;12.70;;;8.38;;
20611;SDS011;10465;42.686;23.364;2023-05-10T08:22:33;11.07;;;8.30;;
20611;SDS011;10465;42.686;23.364;2023-05-10T08:24:59;15.48;;;8.52;;
20611;SDS011;10465;42.686;23.364;2023-05-10T08:27:24;10.10;;;8.02;;
20611;SDS011;10465;42.686;23.364;2023-05-10T08:29:50;10.13;;;8.13;;
20611;SDS011;10465;42.686;23.364;2023-05-10T08:32:15;11.90;;;8.30;;
20611;SDS011;10465;42.686;23.364;2023-05-10T08:34:40;10.73;;;7.25;;
20611;SDS011;10465;42.686;23.364;2023-05-10T08:37:06;10.15;;;8.13;;
20611;SDS011;10465;42.686;23.364;2023-05-10T08:39:35;12.40;;;8.35;;
20611;SDS011;10465;42.686;23.364;2023-05-10T08:42:01;10.77;;;8.02;;
20611;SDS011;10465;42.686;23.364;2023-05-10T08:44:29;11.38;;;9.10;;
20611;SDS011;10465;42.686;23.364;2023-05-10T08:46:57;12.13;;;8.48;;
20611;SDS011;10465;42.686;23.364;2023-05-10T08:49:24;11.05;;;8.30;;
20611;SDS011;10465;42.686;23.364;2023-05-10T08:51:54;10.50;;;8.02;;
20611;SDS011;10465;42.686;23.364;2023-05-10T08:54:21;9.95;;;8.18;;
20611;SDS011;10465;42.686;23.364;2023-05-10T08:56:46;9.02;;;7.82;;
20611;SDS011;10465;42.686;23.364;2023-05-10T08:59:12;9.18;;;8.18;;
20611;SDS011;10465;42.686;23.364;2023-05-10T09:01:38;9.15;;;8.15;;
20611;SDS011;10465;42.686;23.364;2023-05-10T09:04:05;9.50;;;7.72;;
20611;SDS011;10465;42.686;23.364;2023-05-10T09:06:31;12.93;;;8.52;;
20611;SDS011;10465;42.686;23.364;2023-05-10T09:08:57;12.07;;;8.20;;
20611;SDS011;10465;42.686;23.364;2023-05-10T09:11:23;9.68;;;7.20;;
20611;SDS011;10465;42.686;23.364;2023-05-10T09:13:49;14.10;;;8.50;;
20611;SDS011;10465;42.686;23.364;2023-05-10T09:16:17;13.23;;;8.38;;
20611;SDS011;10465;42.686;23.364;2023-05-10T09:18:42;12.02;;;8.57;;
20611;SDS011;10465;42.686;23.364;2023-05-10T09:21:08;9.68;;;8.40;;
20611;SDS011;10465;42.686;23.364;2023-05-10T09:23:34;10.80;;;8.52;;
20611;SDS011;10465;42.686;23.364;2023-05-10T09:26:06;11.98;;;8.75;;
20611;SDS011;10465;42.686;23.364;2023-05-10T09:28:49;12.00;;;8.52;;
20611;SDS011;10465;42.686;23.364;2023-05-10T09:31:19;12.40;;;7.72;;
20611;SDS011;10465;42.686;23.364;2023-05-10T09:33:45;11.57;;;8.45;;
20611;SDS011;10465;42.686;23.364;2023-05-10T09:36:12;12.10;;;7.75;;
20611;SDS011;10465;42.686;23.364;2023-05-10T09:38:44;10.75;;;8.48;;
20611;SDS011;10465;42.686;23.364;2023-05-10T09:41:15;10.93;;;8.65;;
20611;SDS011;10465;42.686;23.364;2023-05-10T09:43:45;9.43;;;8.43;;
20611;SDS011;10465;42.686;23.364;2023-05-10T09:46:11;11.13;;;8.27;;
20611;SDS011;10465;42.686;23.364;2023-05-10T09:48:41;11.07;;;9.25;;
20611;SDS011;10465;42.686;23.364;2023-05-10T09:51:09;11.85;;;8.63;;
20611;SDS011;10465;42.686;23.364;2023-05-10T09:53:35;12.20;;;8.73;;
20611;SDS011;10465;42.686;23.364;2023-05-10T09:56:01;12.73;;;8.23;;
20611;SDS011;10465;42.686;23.364;2023-05-10T09:58:26;10.00;;;7.93;;
20611;SDS011;10465;42.686;23.364;2023-05-10T10:00:53;9.20;;;8.07;;
20611;SDS011;10465;42.686;23.364;2023-05-10T10:03:21;9.40;;;7.75;;
20611;SDS011;10465;42.686;23.364;2023-05-10T10:05:48;9.13;;;8.15;;
20611;SDS011;10465;42.686;23.364;2023-05-10T10:08:14;8.90;;;7.25;;
20611;SDS011;10465;42.686;23.364;2023-05-10T10:10:41;11.38;;;7.97;;
20611;SDS011;10465;42.686;23.364;2023-05-10T10:13:07;12.95;;;7.80;;
20611;SDS011;10465;42.686;23.364;2023-05-10T10:15:33;12.60;;;7.57;;
20611;SDS011;10465;42.686;23.364;2023-05-10T10:18:00;11.70;;;8.40;;
20611;SDS011;10465;42.686;23.364;2023-05-10T10:20:26;9.02;;;7.50;;
20611;SDS011;10465;42.686;23.364;2023-05-10T10:22:52;8.90;;;7.93;;
20611;SDS011;10465;42.686;23.364;2023-05-10T10:25:18;8.98;;;7.05;;
20611;SDS011;10465;42.686;23.364;2023-05-10T10:30:28;11.45;;;6.22;;
20611;SDS011;10465;42.686;23.364;2023-05-10T10:36:04;11.15;;;7.03;;
20611;SDS011;10465;42.686;23.364;2023-05-10T10:39:05;10.82;;;6.32;;
20611;SDS011;10465;42.686;23.364;2023-05-10T10:41:35;10.13;;;7.10;;
20611;SDS011;10465;42.686;23.364;2023-05-10T10:50:07;7.90;;;6.80;;
20611;SDS011;10465;42.686;23.364;2023-05-10T10:52:34;11.55;;;6.88;;
20611;SDS011;10465;42.686;23.364;2023-05-10T11:02:50;12.23;;;7.90;;
20611;SDS011;10465;42.686;23.364;2023-05-10T11:05:41;9.82;;;6.70;;
20611;SDS011;10465;42.686;23.364;2023-05-10T11:08:17;10.23;;;7.50;;
20611;SDS011;10465;42.686;23.364;2023-05-10T11:13:44;8.23;;;6.75;;
20611;SDS011;10465;42.686;23.364;2023-05-10T11:16:19;9.43;;;7.03;;
20611;SDS011;10465;42.686;23.364;2023-05-10T11:24:30;12.02;;;8.05;;
20611;SDS011;10465;42.686;23.364;2023-05-10T11:26:56;12.00;;;7.93;;
20611;SDS011;10465;42.686;23.364;2023-05-10T11:29:22;8.70;;;7.70;;
20611;SDS011;10465;42.686;23.364;2023-05-10T11:31:48;11.70;;;8.65;;
20611;SDS011;10465;42.686;23.364;2023-05-10T11:34:24;13.30;;;7.75;;
20611;SDS011;10465;42.686;23.364;2023-05-10T11:36:50;9.50;;;7.40;;
20611;SDS011;10465;42.686;23.364;2023-05-10T11:39:18;9.50;;;8.07;;
20611;SDS011;10465;42.686;23.364;2023-05-10T11:41:46;10.63;;;7.57;;
20611;SDS011;10465;42.686;23.364;2023-05-10T11:44:13;10.27;;;7.50;;
20611;SDS011;10465;42.686;23.364;2023-05-10T11:46:38;7.47;;;6.57;;
20611;SDS011;10465;42.686;23.364;2023-05-10T11:49:04;12.77;;;6.75;;
20611;SDS011;10465;42.686;23.364;2023-05-10T11:51:35;9.70;;;7.53;;
20611;SDS011;10465;42.686;23.364;2023-05-10T11:54:01;12.60;;;7.68;;
20611;SDS011;10465;42.686;23.364;2023-05-10T11:56:32;10.63;;;7.30;;
20611;SDS011;10465;42.686;23.364;2023-05-10T11:58:58;9.48;;;7.70;;
20611;SDS011;10465;42.686;23.364;2023-05-10T12:01:24;10.18;;;7.38;;
20611;SDS011;10465;42.686;23.364;2023-05-10T12:03:51;9.98;;;6.43;;
20611;SDS011;10465;42.686;23.364;2023-05-10T12:06:19;13.35;;;8.23;;
20611;SDS011;10465;42.686;23.364;2023-05-10T12:08:46;11.07;;;7.55;;
20611;SDS011;10465;42.686;23.364;2023-05-10T12:11:12;13.32;;;8.52;;
20611;SDS011;10465;42.686;23.364;2023-05-10T12:13:43;12.15;;;8.43;;
20611;SDS011;10465;42.686;23.364;2023-05-10T12:16:24;9.82;;;7.90;;
20611;SDS011;10465;42.686;23.364;2023-05-10T12:18:51;10.48;;;7.70;;
20611;SDS011;10465;42.686;23.364;2023-05-10T12:21:18;12.85;;;8.23;;
20611;SDS011;10465;42.686;23.364;2023-05-10T12:23:45;9.32;;;7.80;;
20611;SDS011;10465;42.686;23.364;2023-05-10T12:26:17;11.35;;;7.70;;
20611;SDS011;10465;42.686;23.364;2023-05-10T12:28:43;9.98;;;7.18;;
20611;SDS011;10465;42.686;23.364;2023-05-10T12:31:12;10.27;;;7.40;;
20611;SDS011;10465;42.686;23.364;2023-05-10T12:36:15;12.93;;;8.60;;
20611;SDS011;10465;42.686;23.364;2023-05-10T12:38:44;11.98;;;8.00;;
20611;SDS011;10465;42.686;23.364;2023-05-10T12:41:14;9.60;;;7.72;;
20611;SDS011;10465;42.686;23.364;2023-05-10T12:43:41;9.80;;;8.07;;
20611;SDS011;10465;42.686;23.364;2023-05-10T12:46:11;11.20;;;7.53;;
20611;SDS011;10465;42.686;23.364;2023-05-10T12:48:38;10.25;;;8.27;;
20611;SDS011;10465;42.686;23.364;2023-05-10T12:51:05;12.90;;;7.63;;
20611;SDS011;10465;42.686;23.364;2023-05-10T12:53:37;9.85;;;7.35;;
20611;SDS011;10465;42.686;23.364;2023-05-10T12:56:03;11.15;;;7.63;;
20611;SDS011;10465;42.686;23.364;2023-05-10T12:58:29;12.30;;;7.72;;
20611;SDS011;10465;42.686;23.364;2023-05-10T13:00:55;12.68;;;8.20;;
20611;SDS011;10465;42.686;23.364;2023-05-10T13:03:21;13.45;;;9.18;;
20611;SDS011;10465;42.686;23.364;2023-05-10T13:05:47;12.18;;;8.55;;
20611;SDS011;10465;42.686;23.364;2023-05-10T13:08:13;13.57;;;8.63;;
20611;SDS011;10465;42.686;23.364;2023-05-10T13:10:38;11.05;;;8.30;;
20611;SDS011;10465;42.686;23.364;2023-05-10T13:13:04;10.73;;;7.35;;
20611;SDS011;10465;42.686;23.364;2023-05-10T13:15:30;11.27;;;7.47;;
20611;SDS011;10465;42.686;23.364;2023-05-10T13:17:55;8.35;;;7.13;;
20611;SDS011;10465;42.686;23.364;2023-05-10T13:20:21;9.32;;;6.72;;
20611;SDS011;10465;42.686;23.364;2023-05-10T13:22:46;11.95;;;7.72;;
20611;SDS011;10465;42.686;23.364;2023-05-10T13:25:12;8.98;;;6.82;;
20611;SDS011;10465;42.686;23.364;2023-05-10T13:27:41;8.52;;;6.70;;
20611;SDS011;10465;42.686;23.364;2023-05-10T13:30:09;11.48;;;7.70;;
20611;SDS011;10465;42.686;23.364;2023-05-10T13:32:36;14.57;;;8.13;;
20611;SDS011;10465;42.686;23.364;2023-05-10T13:35:02;10.50;;;7.28;;
20611;SDS011;10465;42.686;23.364;2023-05-10T13:37:30;12.55;;;6.85;;
20611;SDS011;10465;42.686;23.364;2023-05-10T13:39:56;11.95;;;7.20;;
20611;SDS011;10465;42.686;23.364;2023-05-10T13:42:22;9.38;;;7.85;;
20611;SDS011;10465;42.686;23.364;2023-05-10T13:44:48;10.45;;;7.85;;
20611;SDS011;10465;42.686;23.364;2023-05-10T13:47:16;10.73;;;7.57;;
20611;SDS011;10465;42.686;23.364;2023-05-10T13:49:42;12.52;;;7.35;;
20611;SDS011;10465;42.686;23.364;2023-05-10T13:52:07;11.43;;;7.50;;
20611;SDS011;10465;42.686;23.364;2023-05-10T13:54:34;9.68;;;7.25;;
20611;SDS011;10465;42.686;23.364;2023-05-10T13:57:04;13.82;;;8.25;;
20611;SDS011;10465;42.686;23.364;2023-05-10T13:59:29;10.63;;;7.97;;
20611;SDS011;10465;42.686;23.364;2023-05-10T14:01:56;9.55;;;7.38;;
20611;SDS011;10465;42.686;23.364;2023-05-10T14:04:22;9.35;;;7.30;;
20611;SDS011;10465;42.686;23.364;2023-05-10T14:06:48;17.55;;;7.80;;
20611;SDS011;10465;42.686;23.364;2023-05-10T14:09:13;12.05;;;8.13;;
20611;SDS011;10465;42.686;23.364;2023-05-10T14:11:39;15.10;;;9.02;;
20611;SDS011;10465;42.686;23.364;2023-05-10T14:14:08;16.77;;;9.75;;
20611;SDS011;10465;42.686;23.364;2023-05-10T14:16:34;13.48;;;8.13;;
20611;SDS011;10465;42.686;23.364;2023-05-10T14:18:59;11.27;;;8.60;;
20611;SDS011;10465;42.686;23.364;2023-05-10T14:21:24;12.88;;;8.02;;
20611;SDS011;10465;42.686;23.364;2023-05-10T14:23:50;10.55;;;7.18;;
20611;SDS011;10465;42.686;23.364;2023-05-10T14:26:15;11.52;;;8.13;;
20611;SDS011;10465;42.686;23.364;2023-05-10T14:28:41;11.80;;;8.02;;
20611;SDS011;10465;42.686;23.364;2023-05-10T14:31:06;11.57;;;7.55;;
20611;SDS011;10465;42.686;23.364;2023-05-10T14:33:32;11.68;;;7.68;;
20611;SDS011;10465;42.686;23.364;2023-05-10T14:35:57;10.88;;;7.47;;
20611;SDS011;10465;42.686;23.364;2023-05-10T14:38:23;10.63;;;7.82;;
20611;SDS011;10465;42.686;23.364;2023-05-10T14:40:48;9.40;;;7.43;;
20611;SDS011;10465;42.686;23.364;2023-05-10T14:43:14;10.02;;;7.82;;
20611;SDS011;10465;42.686;23.364;2023-05-10T14:45:39;11.15;;;7.57;;
20611;SDS011;10465;42.686;23.364;2023-05-10T14:48:06;13.18;;;7.88;;
20611;SDS011;10465;42.686;23.364;2023-05-10T14:50:36;11.02;;;7.93;;
20611;SDS011;10465;42.686;23.364;2023-05-10T14:53:01;11.52;;;8.00;;
20611;SDS011;10465;42.686;23.364;2023-05-10T14:55:26;7.72;;;6.32;;
20611;SDS011;10465;42.686;23.364;2023-05-10T14:57:52;8.70;;;7.35;;
20611;SDS011;10465;42.686;23.364;2023-05-10T15:00:18;8.48;;;7.05;;
20611;SDS011;10465;42.686;23.364;2023-05-10T15:02:44;11.07;;;7.65;;
20611;SDS011;10465;42.686;23.364;2023-05-10T15:05:10;11.88;;;8.65;;
20611;SDS011;10465;42.686;23.364;2023-05-10T15:07:35;11.32;;;7.90;;
20611;SDS011;10465;42.686;23.364;2023-05-10T15:10:00;11.38;;;9.23;;